Time;durP1;ratioP1;P1;durP2;ratioP2;P2;SDS_P1;SDS_P2;PMS_P1;PMS_P2;Temp;Humidity;BMP_temperature;BMP_pressure;BME280_temperature;BME280_humidity;BME280_pressure;Samples;Min_cycle;Max_cycle;Signal;HPM_P1;HPM_P2
2021/03/01 00:02:19;;;;;;;0.60;0.53;;;;;;;4.15;97.25;103047.53;5054652;28;20844;-65
2021/03/01 00:04:46;;;;;;;0.40;0.30;;;;;;;4.15;96.71;103050.19;5054511;28;20514;-65
2021/03/01 00:07:12;;;;;;;0.77;0.60;;;;;;;4.15;96.58;103052.88;5054542;28;20446;-65
2021/03/01 00:09:39;;;;;;;0.40;0.30;;;;;;;4.11;96.10;103054.31;5054483;28;20450;-65
2021/03/01 00:12:05;;;;;;;0.50;0.47;;;;;;;4.09;95.41;103056.38;5054389;28;20489;-66
2021/03/01 00:14:31;;;;;;;1.33;1.23;;;;;;;4.06;95.35;103059.44;5054414;28;20442;-66
2021/03/01 00:16:57;;;;;;;0.60;0.60;;;;;;;4.06;95.64;103062.13;5054399;28;20464;-66
2021/03/01 00:19:23;;;;;;;7.00;2.10;;;;;;;4.06;95.66;103064.78;5054263;28;20449;-66
2021/03/01 00:21:50;;;;;;;2.53;0.70;;;;;;;4.07;95.31;103063.75;5053931;28;20885;-66
2021/03/01 00:24:16;;;;;;;0.50;0.47;;;;;;;4.05;95.23;103071.19;5054162;28;20482;-66
2021/03/01 00:26:42;;;;;;;1.67;1.20;;;;;;;4.12;94.96;103077.44;5054132;28;20438;-66
2021/03/01 00:29:08;;;;;;;0.70;0.50;;;;;;;4.12;96.13;103080.13;5053809;28;20446;-65
2021/03/01 00:31:34;;;;;;;0.40;0.30;;;;;;;4.20;96.32;103079.13;5053693;28;20556;-65
2021/03/01 00:34:00;;;;;;;0.40;0.20;;;;;;;4.25;96.64;103082.03;5054052;28;20556;-66
2021/03/01 00:36:26;;;;;;;0.80;0.80;;;;;;;4.27;97.22;103085.38;5053979;28;20512;-66
2021/03/01 00:38:53;;;;;;;0.40;0.40;;;;;;;4.37;97.51;103082.31;5054021;28;20454;-66
2021/03/01 00:41:19;;;;;;;7.00;0.63;;;;;;;4.35;98.10;103081.72;5053831;28;20465;-66
2021/03/01 00:43:44;;;;;;;0.40;0.30;;;;;;;4.41;98.19;103076.34;5053758;28;20442;-66
2021/03/01 00:46:10;;;;;;;2.30;0.97;;;;;;;4.48;98.33;103084.47;5053371;28;20442;-66
2021/03/01 00:48:36;;;;;;;1.17;1.17;;;;;;;4.51;98.57;103084.03;5053770;28;20438;-66
2021/03/01 00:51:03;;;;;;;5.33;1.97;;;;;;;4.43;99.13;103082.38;5053642;28;20466;-66
2021/03/01 00:53:29;;;;;;;4.47;0.50;;;;;;;4.45;99.40;103087.53;5053649;28;20840;-66
2021/03/01 00:55:56;;;;;;;0.40;0.30;;;;;;;4.57;99.14;103088.63;5053606;28;20542;-66
2021/03/01 00:58:22;;;;;;;0.70;0.70;;;;;;;4.61;99.08;103091.75;5053303;28;20450;-66
2021/03/01 01:00:50;;;;;;;0.50;0.50;;;;;;;4.63;98.01;103082.47;5053217;28;20465;-66
2021/03/01 01:03:18;;;;;;;1.43;1.33;;;;;;;4.65;97.41;103090.31;5054912;28;20454;-66
2021/03/01 01:05:44;;;;;;;0.60;0.60;;;;;;;4.63;96.78;103087.81;5053063;28;21003;-66
2021/03/01 01:08:10;;;;;;;1.50;1.40;;;;;;;4.61;96.40;103089.06;5053445;28;20447;-66
2021/03/01 01:10:37;;;;;;;6.90;2.07;;;;;;;4.61;95.92;103089.06;5053458;28;20446;-66
2021/03/01 01:13:05;;;;;;;0.50;0.50;;;;;;;4.61;95.57;103072.97;5053012;28;20434;-66
2021/03/01 01:15:32;;;;;;;0.40;0.30;;;;;;;4.66;95.96;103082.06;5053347;28;20446;-66
2021/03/01 01:17:58;;;;;;;0.50;0.43;;;;;;;4.71;96.38;103081.47;5053284;28;20442;-66
2021/03/01 01:20:24;;;;;;;4.20;1.50;;;;;;;4.71;96.17;103076.94;5053263;28;20442;-66
2021/03/01 01:22:50;;;;;;;0.60;0.60;;;;;;;4.69;95.96;103068.25;5052850;28;20462;-66
2021/03/01 01:25:16;;;;;;;0.43;0.40;;;;;;;4.65;95.93;103061.63;5053265;28;20517;-66
2021/03/01 01:27:43;;;;;;;0.40;0.30;;;;;;;4.58;96.62;103063.44;5053150;28;20438;-66
2021/03/01 01:30:14;;;;;;;3.40;3.10;;;;;;;4.62;97.10;103058.50;5053103;28;20789;-67
2021/03/01 01:32:40;;;;;;;0.70;0.50;;;;;;;4.67;97.14;103050.69;5053076;28;20454;-66
2021/03/01 01:35:07;;;;;;;0.40;0.20;;;;;;;4.71;96.93;103046.56;5053073;28;20438;-66
2021/03/01 01:37:33;;;;;;;0.80;0.40;;;;;;;4.69;97.20;103044.09;5053029;28;20874;-66
2021/03/01 01:39:59;;;;;;;0.50;0.40;;;;;;;4.66;97.75;103049.84;5053042;28;20450;-66
2021/03/01 01:42:25;;;;;;;0.60;0.57;;;;;;;4.69;97.92;103052.16;5052949;28;20470;-67
2021/03/01 01:44:51;;;;;;;0.50;0.50;;;;;;;4.71;97.95;103047.41;5053052;28;20481;-66
2021/03/01 01:47:18;;;;;;;0.90;0.90;;;;;;;4.67;98.13;103039.94;5052944;28;20797;-66
2021/03/01 01:49:44;;;;;;;0.40;0.30;;;;;;;4.72;97.94;103048.22;5052560;28;21002;-69
2021/03/01 01:52:10;;;;;;;0.70;0.70;;;;;;;4.72;97.76;103046.38;5052893;28;20458;-67
2021/03/01 01:54:37;;;;;;;5.03;1.73;;;;;;;4.72;97.89;103048.22;5052883;28;20446;-68
2021/03/01 01:57:04;;;;;;;4.20;1.30;;;;;;;4.72;97.45;103046.38;5054327;28;20449;-67
2021/03/01 01:59:30;;;;;;;0.63;0.53;;;;;;;4.71;97.43;103044.72;5056997;28;20446;-67
2021/03/01 02:01:57;;;;;;;0.60;0.60;;;;;;;4.68;97.07;103044.28;5056858;28;20484;-66
2021/03/01 02:04:29;;;;;;;0.57;0.57;;;;;;;4.72;96.74;103032.94;5056830;28;20477;-67
2021/03/01 02:07:01;;;;;;;0.60;0.40;;;;;;;4.69;96.68;103032.50;5056863;28;20434;-67
2021/03/01 02:09:43;;;;;;;0.50;0.40;;;;;;;4.71;96.83;103035.84;5056859;28;20507;-66
2021/03/01 02:12:13;;;;;;;2.23;2.03;;;;;;;4.63;96.30;103036.00;5056753;28;20515;-66
2021/03/01 02:15:04;;;;;;;0.40;0.30;;;;;;;4.59;96.77;103032.88;5056526;28;20415;-67
2021/03/01 02:17:30;;;;;;;4.10;0.97;;;;;;;4.59;96.80;103034.75;5056738;28;20422;-66
2021/03/01 02:19:57;;;;;;;1.63;0.83;;;;;;;4.62;96.73;103031.66;5056469;28;20438;-67
2021/03/01 02:22:25;;;;;;;0.93;0.83;;;;;;;4.60;96.91;103023.81;5056441;28;20472;-66
2021/03/01 02:24:54;;;;;;;2.20;1.90;;;;;;;4.58;97.28;103023.19;5056452;28;20481;-66
2021/03/01 02:27:24;;;;;;;0.40;0.40;;;;;;;4.59;97.29;103024.00;5056457;28;20453;-67
2021/03/01 02:29:55;;;;;;;8.77;1.17;;;;;;;4.61;97.34;103030.84;5056478;28;20441;-67
2021/03/01 02:32:23;;;;;;;0.60;0.50;;;;;;;4.64;97.63;103033.09;5055947;28;20896;-67
2021/03/01 02:34:49;;;;;;;0.60;0.60;;;;;;;4.69;97.64;103033.38;5056327;28;20810;-67
2021/03/01 02:37:18;;;;;;;1.33;1.23;;;;;;;4.73;97.44;103039.13;5056264;28;20446;-66
2021/03/01 02:39:47;;;;;;;1.80;0.90;;;;;;;4.72;97.24;103027.56;5056140;28;20438;-66
2021/03/01 02:42:16;;;;;;;0.67;0.67;;;;;;;4.75;97.43;103029.84;5055739;28;20986;-66
2021/03/01 02:44:44;;;;;;;1.80;0.67;;;;;;;4.75;96.85;103019.13;5056015;28;20482;-67
2021/03/01 02:47:11;;;;;;;0.90;0.60;;;;;;;4.73;96.99;103023.03;5055838;28;20936;-66
2021/03/01 02:49:38;;;;;;;1.43;0.60;;;;;;;4.72;97.25;103032.94;5055726;28;20951;-66
2021/03/01 02:52:07;;;;;;;0.40;0.30;;;;;;;4.74;96.96;103030.06;5055916;28;20462;-67
2021/03/01 02:54:33;;;;;;;0.47;0.33;;;;;;;4.67;96.56;103031.91;5055722;28;20943;-67
2021/03/01 02:57:01;;;;;;;0.50;0.50;;;;;;;4.62;97.07;103032.50;5055879;28;20462;-68
2021/03/01 02:59:28;;;;;;;1.70;1.60;;;;;;;4.66;96.73;103028.38;5055800;28;20438;-66
2021/03/01 03:01:55;;;;;;;0.60;0.60;;;;;;;4.60;96.47;103026.47;5055319;28;20540;-66
2021/03/01 03:04:23;;;;;;;1.53;0.80;;;;;;;4.63;96.11;103023.41;5055783;28;20504;-67
2021/03/01 03:06:50;;;;;;;3.60;1.03;;;;;;;4.58;95.47;103025.88;5055729;28;20457;-67
2021/03/01 03:09:17;;;;;;;2.17;0.80;;;;;;;4.54;94.99;103035.34;5055304;28;20465;-66
2021/03/01 03:11:44;;;;;;;0.50;0.50;;;;;;;4.58;95.38;103036.59;5055642;28;20539;-67
2021/03/01 03:14:16;;;;;;;3.27;1.40;;;;;;;4.58;96.08;103030.41;5055589;28;20493;-66
2021/03/01 03:16:42;;;;;;;0.87;0.50;;;;;;;4.59;96.58;103027.53;5055565;28;20422;-68
2021/03/01 03:19:09;;;;;;;1.33;0.97;;;;;;;4.58;96.83;103025.88;5055522;28;20448;-66
2021/03/01 03:21:35;;;;;;;0.50;0.40;;;;;;;4.59;96.45;103035.56;5055350;28;20458;-67
2021/03/01 03:24:02;;;;;;;1.20;0.80;;;;;;;4.62;96.45;103040.53;5055035;28;20966;-67
2021/03/01 03:26:28;;;;;;;2.33;1.97;;;;;;;4.61;96.65;103030.03;5055335;28;20809;-66
2021/03/01 03:28:54;;;;;;;0.60;0.40;;;;;;;4.63;96.83;103031.47;5055299;28;20449;-66
2021/03/01 03:31:21;;;;;;;0.50;0.30;;;;;;;4.66;97.04;103039.13;5054994;28;20558;-67
2021/03/01 03:33:47;;;;;;;0.40;0.30;;;;;;;4.69;97.13;103049.47;5055204;28;20811;-66
2021/03/01 03:36:15;;;;;;;0.40;0.40;;;;;;;4.74;96.91;103046.19;5055127;28;20445;-66
2021/03/01 03:38:46;;;;;;;1.03;0.77;;;;;;;4.77;96.93;103045.75;5055297;28;20442;-67
2021/03/01 03:41:15;;;;;;;0.73;0.73;;;;;;;4.78;96.54;103042.88;5055194;28;20516;-66
2021/03/01 03:43:42;;;;;;;0.97;0.97;;;;;;;4.77;96.40;103049.28;5055101;28;20450;-66
2021/03/01 03:46:10;;;;;;;2.60;1.47;;;;;;;4.71;96.65;103044.72;5054877;28;20493;-66
2021/03/01 03:48:37;;;;;;;6.20;1.03;;;;;;;4.74;96.74;103049.69;5054945;28;20446;-66
2021/03/01 03:51:08;;;;;;;3.83;0.80;;;;;;;4.78;96.29;103050.94;5054836;28;21038;-67
2021/03/01 03:53:39;;;;;;;2.20;0.67;;;;;;;4.79;96.25;103051.78;5054892;28;20419;-66
2021/03/01 03:56:06;;;;;;;1.00;0.90;;;;;;;4.75;96.21;103035.22;5054185;28;21021;-67
2021/03/01 03:58:35;;;;;;;2.93;1.93;;;;;;;4.73;96.14;103039.97;5054739;28;20476;-68
2021/03/01 04:01:03;;;;;;;0.67;0.40;;;;;;;4.67;95.41;103039.94;5054359;28;20836;-67
2021/03/01 04:03:35;;;;;;;1.33;0.90;;;;;;;4.68;95.65;103044.28;5054537;28;20446;-67
2021/03/01 04:06:02;;;;;;;0.43;0.33;;;;;;;4.70;95.14;103045.75;5054765;28;20466;-67
2021/03/01 04:08:30;;;;;;;1.17;0.50;;;;;;;4.64;94.26;103051.06;5054557;28;20503;-67
2021/03/01 04:10:59;;;;;;;2.80;0.90;;;;;;;4.65;93.99;103053.59;5054459;28;20455;-66
2021/03/01 04:13:28;;;;;;;0.70;0.60;;;;;;;4.66;94.48;103049.84;5054131;28;20943;-67
2021/03/01 04:15:55;;;;;;;0.40;0.30;;;;;;;4.68;94.53;103055.84;5054100;28;20997;-67
2021/03/01 04:18:25;;;;;;;0.40;0.30;;;;;;;4.68;94.74;103060.38;5054097;28;20449;-67
2021/03/01 04:20:52;;;;;;;1.80;1.70;;;;;;;4.70;94.87;103056.50;5053388;28;20454;-67
2021/03/01 04:23:20;;;;;;;0.40;0.30;;;;;;;4.75;95.40;103056.72;5054332;28;20438;-68
2021/03/01 04:25:47;;;;;;;1.60;0.93;;;;;;;4.75;95.33;103054.03;5054128;28;20505;-67
2021/03/01 04:28:14;;;;;;;0.40;0.27;;;;;;;4.72;95.77;103054.41;5054111;28;20437;-67
2021/03/01 04:30:40;;;;;;;1.60;1.50;;;;;;;4.72;96.46;103049.03;5053814;28;20465;-67
2021/03/01 04:33:08;;;;;;;3.73;2.10;;;;;;;4.79;96.30;103043.72;5054145;28;20509;-68
2021/03/01 04:35:34;;;;;;;1.10;0.77;;;;;;;4.80;96.51;103053.41;5054047;28;20446;-67
2021/03/01 04:38:00;;;;;;;3.10;1.60;;;;;;;4.80;96.70;103056.94;5053925;28;20468;-67
2021/03/01 04:40:28;;;;;;;5.07;2.87;;;;;;;4.79;96.63;103059.81;5053938;28;20863;-67
2021/03/01 04:42:54;;;;;;;1.03;0.83;;;;;;;4.86;96.39;103055.28;5053874;28;20454;-67
2021/03/01 04:45:21;;;;;;;0.60;0.60;;;;;;;4.88;96.32;103050.56;5053863;28;20482;-67
2021/03/01 04:47:49;;;;;;;1.40;1.30;;;;;;;4.91;95.83;103057.38;5053826;28;20438;-65
2021/03/01 04:50:17;;;;;;;2.60;1.23;;;;;;;4.90;95.94;103055.72;5053408;28;20446;-68
2021/03/01 04:52:45;;;;;;;0.90;0.90;;;;;;;4.92;95.46;103057.19;5053661;28;20470;-70
2021/03/01 04:55:13;;;;;;;8.07;1.30;;;;;;;4.90;94.25;103058.41;5053208;28;20943;-67
2021/03/01 04:57:40;;;;;;;2.77;2.10;;;;;;;4.85;93.64;103061.69;5053653;28;20803;-66
2021/03/01 05:00:09;;;;;;;0.47;0.37;;;;;;;4.86;93.91;103059.84;5053279;28;20936;-67
2021/03/01 05:02:36;;;;;;;0.40;0.30;;;;;;;4.86;94.04;103057.16;5053107;28;21001;-66
2021/03/01 05:05:04;;;;;;;3.40;1.30;;;;;;;4.87;94.21;103065.03;5053405;28;20490;-67
2021/03/01 05:07:31;;;;;;;0.67;0.57;;;;;;;4.85;94.35;103050.94;5053125;28;20962;-66
2021/03/01 05:09:57;;;;;;;1.83;1.73;;;;;;;4.79;94.94;103060.66;5053421;28;20441;-66
2021/03/01 05:12:24;;;;;;;3.27;0.70;;;;;;;4.75;95.45;103066.63;5053310;28;20462;-66
2021/03/01 05:14:51;;;;;;;0.43;0.43;;;;;;;4.78;94.34;103061.69;5053356;28;20473;-66
2021/03/01 05:17:17;;;;;;;4.17;1.83;;;;;;;4.75;94.47;103059.38;5053307;28;20442;-66
2021/03/01 05:19:43;;;;;;;0.40;0.30;;;;;;;4.76;94.95;103050.31;5053333;28;20817;-66
2021/03/01 05:22:09;;;;;;;0.87;0.50;;;;;;;4.84;95.30;103061.91;5053168;28;20498;-66
2021/03/01 05:24:35;;;;;;;0.53;0.40;;;;;;;4.83;95.51;103060.25;5053135;28;20552;-67
2021/03/01 05:27:01;;;;;;;1.77;0.70;;;;;;;4.79;96.06;103068.69;5053207;28;20446;-66
2021/03/01 05:29:28;;;;;;;0.40;0.30;;;;;;;4.81;95.85;103068.50;5053195;28;20559;-66
2021/03/01 05:31:55;;;;;;;0.97;0.80;;;;;;;4.84;95.88;103068.09;5052620;28;20826;-67
2021/03/01 05:34:22;;;;;;;1.80;1.10;;;;;;;4.90;95.57;103072.66;5052783;28;20948;-67
2021/03/01 05:36:48;;;;;;;0.77;0.70;;;;;;;4.94;95.54;103083.81;5052781;28;20442;-67
2021/03/01 05:39:14;;;;;;;0.50;0.40;;;;;;;4.93;95.17;103074.94;5053043;28;20508;-66
2021/03/01 05:41:41;;;;;;;0.53;0.40;;;;;;;4.88;95.15;103072.03;5052913;28;20476;-67
2021/03/01 05:44:08;;;;;;;0.40;0.30;;;;;;;4.87;95.34;103082.97;5052958;28;20450;-68
2021/03/01 05:46:35;;;;;;;0.93;0.60;;;;;;;4.90;95.75;103083.41;5053022;28;20499;-70
2021/03/01 05:49:02;;;;;;;0.80;0.70;;;;;;;4.88;95.37;103085.47;5052657;28;20438;-68
2021/03/01 05:51:30;;;;;;;9.70;2.00;;;;;;;4.89;95.29;103086.28;5052872;28;20536;-69
2021/03/01 05:53:59;;;;;;;0.93;0.93;;;;;;;4.87;94.93;103081.13;5052929;28;20441;-65
2021/03/01 05:56:25;;;;;;;4.63;1.33;;;;;;;4.93;94.92;103084.88;5052978;28;20462;-67
2021/03/01 05:58:51;;;;;;;1.77;0.97;;;;;;;4.95;94.44;103090.84;5052935;28;20500;-66
2021/03/01 06:01:18;;;;;;;0.70;0.70;;;;;;;4.90;94.28;103099.50;5052755;28;20543;-66
2021/03/01 06:03:44;;;;;;;4.20;1.73;;;;;;;4.87;94.06;103093.69;5052692;28;20446;-65
2021/03/01 06:06:12;;;;;;;2.10;1.00;;;;;;;4.87;94.20;103091.03;5052678;28;20490;-66
2021/03/01 06:08:39;;;;;;;0.53;0.50;;;;;;;4.86;94.38;103092.06;5052741;28;20540;-65
2021/03/01 06:11:07;;;;;;;1.80;1.23;;;;;;;4.89;94.46;103099.72;5052263;28;20454;-65
2021/03/01 06:13:34;;;;;;;2.90;2.10;;;;;;;4.90;93.93;103096.00;5052715;28;20450;-65
2021/03/01 06:16:01;;;;;;;1.07;1.07;;;;;;;4.92;93.42;103093.97;5052439;28;20488;-66
2021/03/01 06:18:27;;;;;;;0.57;0.40;;;;;;;4.97;93.61;103099.53;5052675;28;20500;-65
2021/03/01 06:20:54;;;;;;;1.73;1.00;;;;;;;5.01;93.82;103103.50;5052577;28;20504;-66
2021/03/01 06:23:31;;;;;;;14.33;1.60;;;;;;;5.01;94.41;103100.81;5052802;28;20465;-65
2021/03/01 06:26:22;;;;;;;0.70;0.63;;;;;;;5.02;94.41;103103.28;5052580;28;20485;-66
2021/03/01 06:28:49;;;;;;;2.57;0.90;;;;;;;5.02;94.60;103097.91;5052369;28;20927;-65
2021/03/01 06:31:33;;;;;;;0.50;0.40;;;;;;;5.02;94.65;103100.59;5052438;28;20485;-65
2021/03/01 06:34:25;;;;;;;3.03;0.83;;;;;;;5.06;94.98;103104.53;5052706;28;20434;-68
2021/03/01 06:37:03;;;;;;;0.93;0.83;;;;;;;5.07;94.63;103095.44;5052694;28;20423;-65
2021/03/01 06:39:33;;;;;;;2.33;0.43;;;;;;;5.07;94.24;103094.63;5052615;28;20434;-65
2021/03/01 06:42:27;;;;;;;1.23;1.23;;;;;;;5.02;94.67;103097.09;5052871;28;20458;-65
2021/03/01 06:45:14;;;;;;;17.77;2.00;;;;;;;5.00;94.94;103096.44;5056273;28;20478;-66
2021/03/01 06:47:48;;;;;;;1.67;1.57;;;;;;;5.07;94.91;103102.66;5055963;28;20441;-66
2021/03/01 06:50:24;;;;;;;2.43;2.13;;;;;;;5.12;94.78;103099.38;5056181;28;20495;-65
2021/03/01 06:52:50;;;;;;;5.80;2.60;;;;;;;5.18;94.39;103094.03;5056118;28;20599;-65
2021/03/01 06:55:18;;;;;;;0.83;0.70;;;;;;;5.17;93.99;103103.09;5056170;28;20445;-66
2021/03/01 06:57:44;;;;;;;1.03;0.77;;;;;;;5.15;93.70;103098.97;5056178;28;20449;-66
2021/03/01 07:00:11;;;;;;;0.40;0.40;;;;;;;5.13;94.16;103104.53;5056053;28;20956;-66
2021/03/01 07:02:38;;;;;;;0.87;0.50;;;;;;;5.13;94.13;103095.66;5057242;28;20457;-65
2021/03/01 07:05:06;;;;;;;2.43;1.40;;;;;;;5.19;93.99;103098.38;5055855;28;20522;-66
2021/03/01 07:07:35;;;;;;;0.50;0.40;;;;;;;5.21;93.50;103096.31;5055867;28;20504;-65
2021/03/01 07:10:01;;;;;;;2.87;0.77;;;;;;;5.27;93.56;103103.56;5055885;28;20438;-66
2021/03/01 07:12:44;;;;;;;2.03;1.17;;;;;;;5.31;92.71;103102.13;5055701;28;21034;-66
2021/03/01 07:15:12;;;;;;;1.73;0.90;;;;;;;5.41;92.64;103101.72;5054469;28;20454;-66
2021/03/01 07:17:40;;;;;;;0.40;0.30;;;;;;;5.42;92.19;103110.63;5055725;28;20449;-66
2021/03/01 07:20:09;;;;;;;0.63;0.63;;;;;;;5.49;91.54;103111.44;5055675;28;20443;-66
2021/03/01 07:22:41;;;;;;;1.07;0.50;;;;;;;5.54;91.81;103112.50;5055591;28;20503;-66
2021/03/01 07:25:09;;;;;;;0.40;0.30;;;;;;;5.51;91.75;103109.41;5055668;28;20473;-66
2021/03/01 07:27:39;;;;;;;0.93;0.93;;;;;;;5.54;92.26;103106.31;5055442;28;20445;-65
2021/03/01 07:30:07;;;;;;;0.77;0.77;;;;;;;5.63;92.16;103099.69;5055850;28;20446;-66
2021/03/01 07:32:36;;;;;;;0.40;0.40;;;;;;;5.66;92.13;103093.88;5054893;28;20489;-66
2021/03/01 07:35:02;;;;;;;0.40;0.30;;;;;;;5.67;92.15;103100.94;5055366;28;20435;-65
2021/03/01 07:37:28;;;;;;;2.80;1.70;;;;;;;5.70;92.30;103097.81;5055317;28;20442;-65
2021/03/01 07:39:54;;;;;;;1.60;0.87;;;;;;;5.76;92.30;103098.88;5055282;28;20890;-65
2021/03/01 07:42:21;;;;;;;0.40;0.40;;;;;;;5.85;91.79;103099.50;5055196;28;20496;-65
2021/03/01 07:44:48;;;;;;;3.63;2.43;;;;;;;5.91;91.40;103104.03;5054856;28;21060;-66
2021/03/01 07:47:15;;;;;;;1.37;1.27;;;;;;;5.97;90.93;103108.59;5055139;28;20442;-66
2021/03/01 07:49:42;;;;;;;3.33;1.03;;;;;;;6.04;91.08;103107.59;5054869;28;20438;-66
2021/03/01 07:52:36;;;;;;;1.17;0.50;;;;;;;6.10;90.63;103113.97;5054935;28;20516;-66
2021/03/01 07:55:05;;;;;;;2.73;1.37;;;;;;;6.19;90.73;103114.59;5053840;28;20415;-66
2021/03/01 07:57:33;;;;;;;2.00;0.50;;;;;;;6.21;90.16;103117.94;5054928;28;20450;-65
2021/03/01 08:00:01;;;;;;;7.20;1.50;;;;;;;6.25;90.07;103121.84;5054634;28;21005;-66
2021/03/01 08:02:30;;;;;;;2.47;1.13;;;;;;;6.26;89.31;103121.63;5054745;28;20466;-66
2021/03/01 08:04:58;;;;;;;0.50;0.40;;;;;;;6.27;88.65;103127.84;5054741;28;20553;-66
2021/03/01 08:07:37;;;;;;;1.73;0.87;;;;;;;6.28;88.79;103135.69;5054745;28;20446;-66
2021/03/01 08:10:04;;;;;;;1.53;1.43;;;;;;;6.36;88.57;103128.44;5054659;28;20447;-66
2021/03/01 08:13:01;;;;;;;1.00;0.83;;;;;;;6.49;88.70;103131.94;5054698;28;20454;-67
2021/03/01 08:15:45;;;;;;;1.63;1.53;;;;;;;6.61;88.08;103134.00;5054730;28;20504;-66
2021/03/01 08:18:14;;;;;;;1.47;1.00;;;;;;;6.62;87.28;103131.09;5054630;28;20426;-66
2021/03/01 08:20:55;;;;;;;5.80;0.97;;;;;;;6.64;87.44;103134.41;5054449;28;20533;-66
2021/03/01 08:23:35;;;;;;;2.43;1.30;;;;;;;6.62;87.58;103136.47;5054256;28;20985;-66
2021/03/01 08:26:03;;;;;;;6.40;1.40;;;;;;;6.62;87.01;103135.66;5054097;28;20989;-66
2021/03/01 08:28:50;;;;;;;2.20;0.77;;;;;;;6.72;86.87;103144.09;5054311;28;20454;-66
2021/03/01 08:31:21;;;;;;;3.17;1.13;;;;;;;6.77;86.02;103147.84;5047835;28;20481;-66
2021/03/01 08:33:48;;;;;;;1.23;0.83;;;;;;;6.82;85.97;103145.31;5054065;28;20966;-66
2021/03/01 08:36:25;;;;;;;2.43;1.13;;;;;;;6.92;85.82;103146.75;5054665;28;20438;-66
2021/03/01 08:38:54;;;;;;;1.50;0.80;;;;;;;6.91;85.66;103135.16;5054186;28;20468;-66
2021/03/01 08:41:42;;;;;;;2.87;0.83;;;;;;;7.05;85.37;103147.53;5053765;28;20908;-66
2021/03/01 08:44:22;;;;;;;0.67;0.67;;;;;;;7.13;84.59;103141.06;5053812;28;21046;-66
2021/03/01 08:46:48;;;;;;;0.97;0.57;;;;;;;7.19;84.60;103142.06;5053930;28;20481;-65
2021/03/01 08:49:25;;;;;;;1.10;1.10;;;;;;;7.23;83.78;103137.91;5054033;28;20504;-66
2021/03/01 08:51:51;;;;;;;0.40;0.30;;;;;;;7.22;82.43;103141.66;5053839;28;20470;-66
2021/03/01 08:54:29;;;;;;;1.43;0.87;;;;;;;7.23;82.24;103143.28;5053666;28;20975;-66
2021/03/01 08:57:05;;;;;;;0.50;0.30;;;;;;;7.21;81.78;103140.78;5053819;28;20446;-66
2021/03/01 08:59:32;;;;;;;1.67;1.57;;;;;;;7.20;81.75;103146.41;5053761;28;20426;-66
2021/03/01 09:01:58;;;;;;;9.17;1.20;;;;;;;7.17;80.84;103153.06;5053277;28;21002;-66
2021/03/01 09:04:25;;;;;;;1.23;0.60;;;;;;;6.88;80.88;103151.72;5053750;28;20466;-66
2021/03/01 09:06:50;;;;;;;1.43;1.30;;;;;;;6.82;81.27;103163.38;5053219;28;20477;-66
2021/03/01 09:09:16;;;;;;;2.20;1.70;;;;;;;6.89;80.73;103160.63;5053297;28;20531;-65
2021/03/01 09:11:43;;;;;;;0.50;0.30;;;;;;;6.92;80.26;103165.59;5053475;28;20466;-66
2021/03/01 09:14:09;;;;;;;1.33;1.07;;;;;;;6.95;79.94;103165.16;5053673;28;20434;-66
2021/03/01 09:16:37;;;;;;;2.27;1.33;;;;;;;7.01;79.74;103167.03;5053102;28;20943;-66
2021/03/01 09:19:05;;;;;;;1.10;1.00;;;;;;;7.07;80.08;103166.16;5053201;28;20881;-66
2021/03/01 09:21:36;;;;;;;1.60;1.50;;;;;;;7.18;79.90;103173.59;5053328;28;20462;-66
2021/03/01 09:24:03;;;;;;;1.43;0.83;;;;;;;7.19;79.67;103169.03;5053414;28;20423;-66
2021/03/01 09:26:30;;;;;;;1.67;0.67;;;;;;;7.19;79.52;103175.22;5052928;28;20885;-66
2021/03/01 09:28:59;;;;;;;1.30;1.20;;;;;;;7.26;78.84;103170.66;5053311;28;20439;-67
2021/03/01 09:31:26;;;;;;;5.13;2.07;;;;;;;7.31;78.86;103168.13;5052944;28;20482;-66
2021/03/01 09:33:53;;;;;;;4.07;0.90;;;;;;;7.30;78.53;103169.19;5052976;28;20454;-66
2021/03/01 09:36:20;;;;;;;2.77;1.17;;;;;;;7.22;79.50;103169.44;5053313;28;20465;-66
2021/03/01 09:38:51;;;;;;;3.10;0.70;;;;;;;7.19;78.85;103175.22;5053340;28;20446;-66
2021/03/01 09:41:17;;;;;;;0.57;0.50;;;;;;;7.17;78.58;103174.63;5053211;28;20473;-66
2021/03/01 09:43:43;;;;;;;1.60;1.23;;;;;;;7.21;78.35;103169.63;5053173;28;20446;-66
2021/03/01 09:46:10;;;;;;;2.97;2.10;;;;;;;7.18;78.53;103173.59;5052936;28;20482;-65
2021/03/01 09:48:43;;;;;;;3.43;1.90;;;;;;;6.77;80.15;103172.09;5053062;28;20540;-66
2021/03/01 09:51:09;;;;;;;1.37;0.90;;;;;;;6.87;79.88;103176.19;5052715;28;20532;-65
2021/03/01 09:53:36;;;;;;;0.63;0.63;;;;;;;6.98;79.68;103170.97;5052980;28;20442;-65
2021/03/01 09:56:03;;;;;;;0.87;0.83;;;;;;;6.91;79.12;103166.66;5053074;28;20449;-66
2021/03/01 09:58:31;;;;;;;0.73;0.73;;;;;;;6.87;79.75;103163.56;5052697;28;20955;-66
2021/03/01 10:01:10;;;;;;;1.23;0.73;;;;;;;7.11;79.46;103174.66;5052667;28;20458;-65
2021/03/01 10:03:38;;;;;;;0.93;0.93;;;;;;;7.21;78.99;103173.13;5052891;28;20533;-65
2021/03/01 10:06:04;;;;;;;2.57;2.10;;;;;;;6.99;79.39;103180.69;5052867;28;20676;-66
2021/03/01 10:08:30;;;;;;;3.70;1.00;;;;;;;7.12;79.25;103174.44;5052913;28;20438;-66
2021/03/01 10:10:56;;;;;;;1.17;1.10;;;;;;;7.13;78.77;103177.94;5052771;28;20458;-66
2021/03/01 10:13:25;;;;;;;3.77;1.00;;;;;;;7.22;78.82;103180.22;5052641;28;20477;-66
2021/03/01 10:15:52;;;;;;;0.93;0.93;;;;;;;7.23;78.04;103183.72;5052564;28;20445;-66
2021/03/01 10:18:20;;;;;;;1.03;0.97;;;;;;;7.31;77.32;103183.50;5054744;28;20445;-66
2021/03/01 10:20:51;;;;;;;1.57;0.97;;;;;;;7.46;77.73;103183.19;5056737;28;20435;-66
2021/03/01 10:23:26;;;;;;;0.60;0.53;;;;;;;7.62;77.35;103180.00;5056399;28;20939;-66
2021/03/01 10:26:05;;;;;;;0.60;0.40;;;;;;;7.70;76.54;103182.44;5056645;28;20554;-66
2021/03/01 10:28:34;;;;;;;1.90;0.70;;;;;;;7.64;75.78;103180.59;5056711;28;20430;-66
2021/03/01 10:31:02;;;;;;;1.87;1.77;;;;;;;7.77;76.19;103180.50;5056130;28;20486;-66
2021/03/01 10:33:28;;;;;;;0.50;0.50;;;;;;;7.77;76.04;103176.97;5056377;28;20450;-66
2021/03/01 10:36:08;;;;;;;1.00;0.87;;;;;;;7.84;75.47;103178.59;5056334;28;20450;-66
2021/03/01 10:38:58;;;;;;;1.20;0.70;;;;;;;7.87;75.34;103179.19;5056062;28;20960;-66
2021/03/01 10:41:26;;;;;;;0.50;0.47;;;;;;;8.00;74.93;103187.19;5056263;28;20833;-66
2021/03/01 10:43:58;;;;;;;0.63;0.60;;;;;;;8.12;74.54;103174.66;5055785;28;20450;-66
2021/03/01 10:46:35;;;;;;;1.17;0.77;;;;;;;8.12;74.76;103180.03;5056096;28;20466;-67
2021/03/01 10:49:03;;;;;;;2.20;2.00;;;;;;;7.93;74.06;103176.47;5056240;28;20430;-66
2021/03/01 10:51:29;;;;;;;2.00;0.70;;;;;;;8.07;74.63;103172.59;5055978;28;20477;-67
2021/03/01 10:53:55;;;;;;;1.33;1.00;;;;;;;8.25;74.06;103176.41;5055884;28;20434;-66
2021/03/01 10:56:21;;;;;;;2.33;0.83;;;;;;;8.34;73.30;103173.19;5056029;28;20815;-66
2021/03/01 10:58:49;;;;;;;2.40;2.30;;;;;;;8.48;73.31;103173.09;5055941;28;20442;-65
2021/03/01 11:01:16;;;;;;;1.23;1.13;;;;;;;8.53;71.97;103165.97;5055964;28;20469;-66
2021/03/01 11:03:43;;;;;;;0.90;0.80;;;;;;;8.61;72.18;103172.97;5056449;28;20449;-66
2021/03/01 11:06:09;;;;;;;2.63;0.87;;;;;;;8.71;72.51;103178.69;5056107;28;20489;-66
2021/03/01 11:08:35;;;;;;;1.53;0.83;;;;;;;8.47;70.77;103171.47;5055947;28;20434;-65
2021/03/01 11:11:01;;;;;;;0.83;0.63;;;;;;;8.51;72.29;103162.69;5055747;28;20477;-66
2021/03/01 11:13:27;;;;;;;0.60;0.40;;;;;;;8.57;72.20;103161.78;5055711;28;20438;-66
2021/03/01 11:15:53;;;;;;;1.60;1.50;;;;;;;8.51;71.69;103161.88;5055700;28;20943;-66
2021/03/01 11:18:20;;;;;;;1.77;1.10;;;;;;;8.35;71.81;103163.22;5055591;28;20446;-65
2021/03/01 11:20:46;;;;;;;0.80;0.80;;;;;;;8.48;73.21;103157.72;5055239;28;20954;-66
2021/03/01 11:23:12;;;;;;;5.80;2.83;;;;;;;8.58;71.40;103162.59;5055420;28;20474;-65
2021/03/01 11:25:38;;;;;;;1.07;0.83;;;;;;;8.60;70.90;103160.53;5054598;28;20999;-65
2021/03/01 11:28:06;;;;;;;1.33;0.87;;;;;;;8.49;71.13;103166.66;5055318;28;20862;-66
2021/03/01 11:30:33;;;;;;;0.80;0.40;;;;;;;8.63;72.05;103168.16;5055211;28;20868;-66
2021/03/01 11:32:59;;;;;;;0.60;0.47;;;;;;;8.62;70.71;103165.69;5055078;28;20447;-67
2021/03/01 11:35:26;;;;;;;4.60;1.67;;;;;;;8.74;71.16;103162.03;5055332;28;20521;-66
2021/03/01 11:37:51;;;;;;;1.97;1.77;;;;;;;8.98;70.49;103167.56;5055228;28;20446;-66
2021/03/01 11:40:18;;;;;;;3.43;1.03;;;;;;;9.23;69.92;103162.88;5054909;28;20796;-66
2021/03/01 11:42:44;;;;;;;2.80;1.47;;;;;;;9.76;69.90;103156.72;5055094;28;20466;-66